createdAt,value
2017-11-10T00:00:47.165Z,77.19
2017-11-10T00:01:46.841Z,77.85
2017-11-10T00:02:46.849Z,77.85
2017-11-10T00:03:47.212Z,77.47
2017-11-10T00:04:46.881Z,77.47
2017-11-10T00:05:47.242Z,77.37
2017-11-10T00:06:46.922Z,77.66
2017-11-10T00:07:47.261Z,77.56
2017-11-10T00:08:47.746Z,78.23
2017-11-10T00:09:47.403Z,78.23
2017-11-10T00:10:47.266Z,78.04
2017-11-10T00:11:47.059Z,78.14
2017-11-10T00:12:47.404Z,78.14
2017-11-10T00:13:47.429Z,78.04
2017-11-10T00:14:47.374Z,78.04
2017-11-10T00:15:47.305Z,77.56
2017-11-10T00:16:47.317Z,77.95
2017-11-10T00:17:47.326Z,77.47
2017-11-10T00:18:47.338Z,77.95
2017-11-10T00:19:47.351Z,77.37
2017-11-10T00:20:47.037Z,77.95
2017-11-10T00:21:47.382Z,77.37
2017-11-10T00:22:47.394Z,77.37
2017-11-10T00:23:47.411Z,77.37
2017-11-10T00:24:47.431Z,78.04
2017-11-10T00:25:47.439Z,78.04
2017-11-10T00:26:47.461Z,78.04
2017-11-10T00:27:47.475Z,78.23
2017-11-10T00:28:47.489Z,78.14
2017-11-10T00:29:47.172Z,77.85
2017-11-10T00:30:47.516Z,77.95
2017-11-10T00:31:47.531Z,77.85
2017-11-10T00:32:47.542Z,77.76
2017-11-10T00:33:47.564Z,77.85
2017-11-10T00:34:47.567Z,77.85
2017-11-10T00:35:47.582Z,77.76
2017-11-10T00:36:47.265Z,78.04
2017-11-10T00:37:47.620Z,77.95
2017-11-10T00:38:47.297Z,77.95
2017-11-10T00:39:47.651Z,78.14
2017-11-10T00:40:47.660Z,78.04
2017-11-10T00:41:47.781Z,77.47
2017-11-10T00:42:47.691Z,78.14
2017-11-10T00:43:47.720Z,78.04
2017-11-10T00:44:47.719Z,77.95
2017-11-10T00:45:47.740Z,77.95
2017-11-10T00:46:48.188Z,77.95
2017-11-10T00:47:47.821Z,77.85
2017-11-10T00:48:47.775Z,77.95
2017-11-10T00:49:47.801Z,78.14
2017-11-10T00:50:47.819Z,78.04
2017-11-10T00:51:47.817Z,78.33
2017-11-10T00:52:47.838Z,78.04
2017-11-10T00:53:47.856Z,78.42
2017-11-10T00:54:47.870Z,77.85
2017-11-10T00:55:47.882Z,78.14
2017-11-10T00:56:47.895Z,77.66
2017-11-10T00:57:47.908Z,78.14
2017-11-10T00:58:47.926Z,78.04
2017-11-10T00:59:47.965Z,77.95
2017-11-10T01:00:47.955Z,78.04
2017-11-10T01:01:47.973Z,77.95
2017-11-10T01:02:47.982Z,77.95
2017-11-10T01:03:47.995Z,77.95
2017-11-10T01:04:48.009Z,77.56
2017-11-10T01:05:48.025Z,78.1
2017-11-10T01:06:48.038Z,78.29
2017-11-10T01:07:47.715Z,77.72
2017-11-10T01:08:47.730Z,78.33
2017-11-10T01:09:48.082Z,78.29
2017-11-10T01:10:48.100Z,78.1
2017-11-10T01:11:48.110Z,77.91
2017-11-10T01:12:48.127Z,77.56
2017-11-10T01:13:48.138Z,78.1
2017-11-10T01:14:48.152Z,78.29
2017-11-10T01:15:47.832Z,78
2017-11-10T01:16:48.180Z,78.14
2017-11-10T01:17:47.859Z,77.72
2017-11-10T01:18:48.210Z,77.72
2017-11-10T01:19:48.227Z,77.81
2017-11-10T01:20:48.244Z,78
2017-11-10T01:21:47.921Z,78.1
2017-11-10T01:22:47.957Z,77.62
2017-11-10T01:23:47.947Z,77.72
2017-11-10T01:24:48.303Z,77.53
2017-11-10T01:25:48.312Z,77.72
2017-11-10T01:26:48.325Z,78.1
2017-11-10T01:27:48.349Z,77.91
2017-11-10T01:28:48.356Z,78.38
2017-11-10T01:29:48.371Z,78.1
2017-11-10T01:30:48.050Z,77.81
2017-11-10T01:31:48.068Z,78.19
2017-11-10T01:32:48.411Z,77.91
2017-11-10T01:33:48.093Z,78.29
2017-11-10T01:34:48.447Z,78.29
2017-11-10T01:35:48.456Z,78.29
2017-11-10T01:36:48.135Z,78.19
2017-11-10T01:37:48.491Z,78.77
2017-11-10T01:38:48.502Z,78.29
2017-11-10T01:39:48.524Z,78.1
2017-11-10T01:40:48.541Z,78.57
2017-11-10T01:41:48.597Z,78.19
2017-11-10T01:42:48.557Z,78.19
2017-11-10T01:43:48.574Z,78.19
2017-11-10T01:44:48.594Z,78.19
2017-11-10T01:45:48.603Z,78.29
2017-11-10T01:46:48.621Z,78
2017-11-10T01:47:48.631Z,78.19
2017-11-10T01:48:48.647Z,78.1
2017-11-10T01:49:48.665Z,78.29
2017-11-10T01:50:48.677Z,78.38
2017-11-10T01:51:48.686Z,78.38
2017-11-10T01:52:48.703Z,78.19
2017-11-10T01:53:48.717Z,78.48
2017-11-10T01:54:48.732Z,78.48
2017-11-10T01:55:48.756Z,78.67
2017-11-10T01:56:48.425Z,78.29
2017-11-10T01:57:48.440Z,78.19
2017-11-10T01:58:48.791Z,78.38
2017-11-10T01:59:48.802Z,78.19
2017-11-10T02:00:48.822Z,78.48
2017-11-10T02:01:48.494Z,78.48
2017-11-10T02:02:48.511Z,78.48
2017-11-10T02:03:48.861Z,78.1
2017-11-10T02:04:48.545Z,78.38
2017-11-10T02:05:48.890Z,78.29
2017-11-10T02:06:48.567Z,78.19
2017-11-10T02:07:48.924Z,78.38
2017-11-10T02:08:48.939Z,78.1
2017-11-10T02:09:48.944Z,78.19
2017-11-10T02:10:48.690Z,78.38
2017-11-10T02:11:48.975Z,78
2017-11-10T02:12:48.993Z,77.72
2017-11-10T02:13:48.671Z,78
2017-11-10T02:14:49.017Z,78.19
2017-11-10T02:15:49.033Z,77.91
2017-11-10T02:16:49.051Z,77.91
2017-11-10T02:17:49.063Z,77.81
2017-11-10T02:18:49.088Z,78.19
2017-11-10T02:19:48.760Z,77.34
2017-11-10T02:20:49.107Z,77.53
2017-11-10T02:21:49.119Z,77.15
2017-11-10T02:22:49.132Z,77.43
2017-11-10T02:23:49.149Z,77.34
2017-11-10T02:24:49.163Z,77.43
2017-11-10T02:25:49.178Z,77.15
2017-11-10T02:26:49.196Z,77.53
2017-11-10T02:27:48.873Z,77.15
2017-11-10T02:28:49.220Z,77.24
2017-11-10T02:29:49.236Z,77.15
2017-11-10T02:30:49.248Z,77.24
2017-11-10T02:31:49.267Z,77.72
2017-11-10T02:32:49.281Z,77.53
2017-11-10T02:33:49.302Z,77.43
2017-11-10T02:34:49.308Z,77.34
2017-11-10T02:35:49.335Z,77.81
2017-11-10T02:36:49.331Z,77.34
2017-11-10T02:37:49.366Z,77.91
2017-11-10T02:38:49.026Z,77.91
2017-11-10T02:39:49.378Z,78.1
2017-11-10T02:40:49.433Z,77.91
2017-11-10T02:41:49.407Z,77.91
2017-11-10T02:42:49.418Z,78.1
2017-11-10T02:43:49.436Z,78.19
2017-11-10T02:44:49.450Z,78.1
2017-11-10T02:45:49.127Z,77.81
2017-11-10T02:46:49.476Z,77.72
2017-11-10T02:47:49.506Z,77.72
2017-11-10T02:48:49.170Z,77.43
2017-11-10T02:49:49.521Z,77.43
2017-11-10T02:50:49.536Z,77.81
2017-11-10T02:51:49.553Z,78.1
2017-11-10T02:52:49.606Z,77.91
2017-11-10T02:53:49.575Z,77.91
2017-11-10T02:54:49.604Z,77.53
2017-11-10T02:55:49.611Z,78
2017-11-10T02:56:49.624Z,77.43
2017-11-10T02:57:49.641Z,78.19
2017-11-10T02:58:49.651Z,78.1
2017-11-10T02:59:49.666Z,78
2017-11-10T03:00:49.680Z,78
2017-11-10T03:01:49.361Z,78.1
2017-11-10T03:02:49.724Z,77.91
2017-11-10T03:03:49.736Z,78
2017-11-10T03:04:49.402Z,78.1
2017-11-10T03:05:49.750Z,77.72
2017-11-10T03:06:49.764Z,78.19
2017-11-10T03:07:49.822Z,77.43
2017-11-10T03:08:49.797Z,78.1
2017-11-10T03:09:49.473Z,77.43
2017-11-10T03:10:49.823Z,77.43
2017-11-10T03:11:49.838Z,77.53
2017-11-10T03:12:49.850Z,77.34
2017-11-10T03:13:49.867Z,77.43
2017-11-10T03:14:49.878Z,77.91
2017-11-10T03:15:49.556Z,76.96
2017-11-10T03:16:49.919Z,77.72
2017-11-10T03:17:49.923Z,77.34
2017-11-10T03:18:49.940Z,77.47
2017-11-10T03:19:49.953Z,77.66
2017-11-10T03:20:49.631Z,77.19
2017-11-10T03:21:49.984Z,77.37
2017-11-10T03:22:49.658Z,77.76
2017-11-10T03:23:50.009Z,77.76
2017-11-10T03:24:50.033Z,77.66
2017-11-10T03:25:50.039Z,77.85
2017-11-10T03:26:50.062Z,77.15
2017-11-10T03:27:49.743Z,77.91
2017-11-10T03:28:50.086Z,77.34
2017-11-10T03:29:49.757Z,77.72
2017-11-10T03:30:50.141Z,77.37
2017-11-10T03:31:50.126Z,77.76
2017-11-10T03:32:49.801Z,77.43
2017-11-10T03:33:49.816Z,77.85
2017-11-10T03:34:50.167Z,77.47
2017-11-10T03:35:50.209Z,77.76
2017-11-10T03:36:49.858Z,77.76
2017-11-10T03:37:50.220Z,77.37
2017-11-10T03:38:49.888Z,77.37
2017-11-10T03:39:50.236Z,77.47
2017-11-10T03:40:49.915Z,77.85
2017-11-10T03:41:50.271Z,77
2017-11-10T03:42:50.286Z,77.19
2017-11-10T03:43:50.293Z,77.28
2017-11-10T03:44:50.312Z,77.37
2017-11-10T03:45:49.989Z,77.28
2017-11-10T03:46:50.342Z,77.09
2017-11-10T03:47:50.354Z,76.81
2017-11-10T03:48:50.378Z,76.9
2017-11-10T03:49:50.388Z,77
2017-11-10T03:50:50.908Z,76.9
2017-11-10T03:51:50.449Z,76.9
2017-11-10T03:52:50.449Z,76.9
2017-11-10T03:53:50.441Z,77.28
2017-11-10T03:54:50.457Z,77.09
2017-11-10T03:55:50.522Z,77
2017-11-10T03:56:50.485Z,76.9
2017-11-10T03:57:50.499Z,77.19
2017-11-10T03:58:50.508Z,77.85
2017-11-10T03:59:50.530Z,77.47
2017-11-10T04:00:50.542Z,77.24
2017-11-10T04:01:50.570Z,77.19
2017-11-10T04:02:50.570Z,76.71
2017-11-10T04:03:50.584Z,76.61
2017-11-10T04:04:50.603Z,76.81
2017-11-10T04:05:50.619Z,76.81
2017-11-10T04:06:50.292Z,76.86
2017-11-10T04:07:50.307Z,76.81
2017-11-10T04:08:50.658Z,76.81
2017-11-10T04:09:50.678Z,77.05
2017-11-10T04:10:50.683Z,77.15
2017-11-10T04:11:50.365Z,77.09
2017-11-10T04:12:50.376Z,76.76
2017-11-10T04:13:50.394Z,77.19
2017-11-10T04:14:50.748Z,76.57
2017-11-10T04:15:50.759Z,76.61
2017-11-10T04:16:50.780Z,76.86
2017-11-10T04:17:50.784Z,76.86
2017-11-10T04:18:50.813Z,76.71
2017-11-10T04:19:50.477Z,76.86
2017-11-10T04:20:50.491Z,76.67
2017-11-10T04:21:50.845Z,76.86
2017-11-10T04:22:50.860Z,76.96
2017-11-10T04:23:50.870Z,76.96
2017-11-10T04:24:50.891Z,76.52
2017-11-10T04:25:50.902Z,76.81
2017-11-10T04:26:50.935Z,76.57
2017-11-10T04:27:50.929Z,76.96
2017-11-10T04:28:50.941Z,76.81
2017-11-10T04:29:50.966Z,76.61
2017-11-10T04:30:50.973Z,76.52
2017-11-10T04:31:50.989Z,77.37
2017-11-10T04:32:51.001Z,77.28
2017-11-10T04:33:51.017Z,77.28
2017-11-10T04:34:51.028Z,77.09
2017-11-10T04:35:51.041Z,77.37
2017-11-10T04:36:50.724Z,77.19
2017-11-10T04:37:51.071Z,77.28
2017-11-10T04:38:51.088Z,77.15
2017-11-10T04:39:51.101Z,77.09
2017-11-10T04:40:51.126Z,76.81
2017-11-10T04:41:51.130Z,76.81
2017-11-10T04:42:50.808Z,76.71
2017-11-10T04:43:51.178Z,77
2017-11-10T04:44:51.176Z,77
2017-11-10T04:45:51.202Z,77.28
2017-11-10T04:46:51.200Z,77
2017-11-10T04:47:51.216Z,77.28
2017-11-10T04:48:51.233Z,77.19
2017-11-10T04:49:50.909Z,77.09
2017-11-10T04:50:51.263Z,77
2017-11-10T04:51:51.279Z,77.19
2017-11-10T04:52:51.295Z,77.28
2017-11-10T04:53:51.301Z,77.28
2017-11-10T04:54:51.324Z,77
2017-11-10T04:55:51.331Z,77.28
2017-11-10T04:56:51.355Z,76.76
2017-11-10T04:57:51.359Z,76.67
2017-11-10T04:58:51.376Z,77.15
2017-11-10T04:59:51.389Z,77.72
2017-11-10T05:00:51.427Z,77.19
2017-11-10T05:01:51.079Z,77.24
2017-11-10T05:02:51.443Z,77.15
2017-11-10T05:03:51.109Z,77.19
2017-11-10T05:04:51.462Z,77.09
2017-11-10T05:05:51.491Z,77.24
2017-11-10T05:06:51.489Z,77.34
2017-11-10T05:07:51.504Z,77.15
2017-11-10T05:08:51.528Z,77.05
2017-11-10T05:09:51.194Z,77.05
2017-11-10T05:10:51.545Z,77.05
2017-11-10T05:11:51.549Z,77.24
2017-11-10T05:12:51.580Z,77.24
2017-11-10T05:13:51.587Z,77.43
2017-11-10T05:14:51.605Z,77.43
2017-11-10T05:15:51.618Z,76.76
2017-11-10T05:16:51.295Z,77.05
2017-11-10T05:17:51.647Z,76.76
2017-11-10T05:18:51.673Z,77.24
2017-11-10T05:19:51.679Z,77.24
2017-11-10T05:20:51.690Z,77.43
2017-11-10T05:21:51.705Z,77.43
2017-11-10T05:22:51.724Z,77.24
2017-11-10T05:23:51.739Z,77.43
2017-11-10T05:24:51.748Z,77.62
2017-11-10T05:25:51.763Z,77.34
2017-11-10T05:26:51.780Z,77.43
2017-11-10T05:27:51.794Z,77.53
2017-11-10T05:28:51.809Z,77.34
2017-11-10T05:29:51.827Z,77.43
2017-11-10T05:30:51.832Z,77.43
2017-11-10T05:31:51.869Z,77.43
2017-11-10T05:32:51.863Z,77.34
2017-11-10T05:33:51.883Z,77.34
2017-11-10T05:34:51.892Z,77.05
2017-11-10T05:35:51.909Z,77.43
2017-11-10T05:36:51.919Z,77.05
2017-11-10T05:37:51.938Z,77.91
2017-11-10T05:38:51.952Z,78.1
2017-11-10T05:39:51.963Z,77.91
2017-11-10T05:40:51.976Z,77.91
2017-11-10T05:41:51.997Z,77.72
2017-11-10T05:42:51.670Z,77.91
2017-11-10T05:43:52.024Z,77.62
2017-11-10T05:44:52.035Z,78.38
2017-11-10T05:45:52.057Z,78.38
2017-11-10T05:46:52.063Z,78.19
2017-11-10T05:47:51.742Z,78.19
2017-11-10T05:48:52.112Z,78.1
2017-11-10T05:49:52.112Z,78.29
2017-11-10T05:50:52.121Z,78.19
2017-11-10T05:51:52.142Z,78.38
2017-11-10T05:52:51.812Z,78
2017-11-10T05:53:52.167Z,78.38
2017-11-10T05:54:51.841Z,78.29
2017-11-10T05:55:52.190Z,78.38
2017-11-10T05:56:52.207Z,78.48
2017-11-10T05:57:52.223Z,78.38
2017-11-10T05:58:52.239Z,78.1
2017-11-10T05:59:52.249Z,78.48
2017-11-10T06:00:52.267Z,78.48
2017-11-10T06:01:51.954Z,78.19
2017-11-10T06:02:52.290Z,78.1
2017-11-10T06:03:52.309Z,78.67
2017-11-10T06:04:52.321Z,78.67
2017-11-10T06:05:52.345Z,78.48
2017-11-10T06:06:52.350Z,78.19
2017-11-10T06:07:52.369Z,78.1
2017-11-10T06:08:52.382Z,78.19
2017-11-10T06:09:52.392Z,78.48
2017-11-10T06:10:52.429Z,78.29
2017-11-10T06:11:52.676Z,78.57
2017-11-10T06:12:52.436Z,78.38
2017-11-10T06:13:52.457Z,78.57
2017-11-10T06:14:52.468Z,78.38
2017-11-10T06:15:52.481Z,78.57
2017-11-10T06:16:52.161Z,78.67
2017-11-10T06:17:52.508Z,78.29
2017-11-10T06:18:52.524Z,78.29
2017-11-10T06:19:52.553Z,78.29
2017-11-10T06:20:52.552Z,78.48
2017-11-10T06:21:52.563Z,78.38
2017-11-10T06:22:52.578Z,78.38
2017-11-10T06:23:52.256Z,78.1
2017-11-10T06:24:52.609Z,78.19
2017-11-10T06:25:52.619Z,78.29
2017-11-10T06:26:52.637Z,78.1
2017-11-10T06:27:52.653Z,78.67
2017-11-10T06:28:52.668Z,78.57
2017-11-10T06:29:52.677Z,78.57
2017-11-10T06:30:52.695Z,78.48
2017-11-10T06:31:52.372Z,79.24
2017-11-10T06:32:52.720Z,78.38
2017-11-10T06:33:52.737Z,78.67
2017-11-10T06:34:52.753Z,78.77
2017-11-10T06:35:52.766Z,79.05
2017-11-10T06:36:52.781Z,79.05
2017-11-10T06:37:52.794Z,78.96
2017-11-10T06:38:52.806Z,78.96
2017-11-10T06:39:52.821Z,78.67
2017-11-10T06:40:52.836Z,79.43
2017-11-10T06:41:52.874Z,79.24
2017-11-10T06:42:52.866Z,79.14
2017-11-10T06:43:52.876Z,78.86
2017-11-10T06:44:52.561Z,78.96
2017-11-10T06:45:52.904Z,79.05
2017-11-10T06:46:52.922Z,79.33
2017-11-10T06:47:52.936Z,78.86
2017-11-10T06:48:52.970Z,79.14
2017-11-10T06:49:52.979Z,79.14
2017-11-10T06:50:52.641Z,79.33
2017-11-10T06:51:52.996Z,79.43
2017-11-10T06:52:52.672Z,79.52
2017-11-10T06:53:53.021Z,79.05
2017-11-10T06:54:53.034Z,79.52
2017-11-10T06:55:52.714Z,79.05
2017-11-10T06:56:52.727Z,79.62
2017-11-10T06:57:53.083Z,78.77
2017-11-10T06:58:53.095Z,79.52
2017-11-10T06:59:53.109Z,78.77
2017-11-10T07:00:53.140Z,79.52
2017-11-10T07:01:53.145Z,79.14
2017-11-10T07:02:53.153Z,79.43
2017-11-10T07:03:53.170Z,79.43
2017-11-10T07:04:53.179Z,79.52
2017-11-10T07:05:53.195Z,79.72
2017-11-10T07:06:53.213Z,79.52
2017-11-10T07:07:53.233Z,79.43
2017-11-10T07:08:53.244Z,79.81
2017-11-10T07:09:52.914Z,79.72
2017-11-10T07:10:53.271Z,79.57
2017-11-10T07:11:53.281Z,79.91
2017-11-10T07:12:53.295Z,79.72
2017-11-10T07:13:53.314Z,79.81
2017-11-10T07:14:53.324Z,79.91
2017-11-10T07:15:53.350Z,79.72
2017-11-10T07:16:53.395Z,79.47
2017-11-10T07:17:53.368Z,79.75
2017-11-10T07:18:53.385Z,79.57
2017-11-10T07:19:53.400Z,80.04
2017-11-10T07:20:53.417Z,80.04
2017-11-10T07:21:53.426Z,80.23
2017-11-10T07:22:53.436Z,80.38
2017-11-10T07:23:53.452Z,80.19
2017-11-10T07:24:53.469Z,80.38
2017-11-10T07:25:53.484Z,80.33
2017-11-10T07:26:53.158Z,80.04
2017-11-10T07:27:53.516Z,80.04
2017-11-10T07:28:53.527Z,80.13
2017-11-10T07:29:53.535Z,80.04
2017-11-10T07:30:53.550Z,80.04
2017-11-10T07:31:53.575Z,79.94
2017-11-10T07:32:53.581Z,80.04
2017-11-10T07:33:53.605Z,80.04
2017-11-10T07:34:53.274Z,79.94
2017-11-10T07:35:53.625Z,79.66
2017-11-10T07:36:53.307Z,80.23
2017-11-10T07:37:53.652Z,80.33
2017-11-10T07:38:53.679Z,80.71
2017-11-10T07:39:53.685Z,80.61
2017-11-10T07:40:53.692Z,80.71
2017-11-10T07:41:53.712Z,80.52
2017-11-10T07:42:53.737Z,80.52
2017-11-10T07:43:53.401Z,80.71
2017-11-10T07:44:53.751Z,80.99
2017-11-10T07:45:53.769Z,80.9
2017-11-10T07:46:53.806Z,80.9
2017-11-10T07:47:53.460Z,80.99
2017-11-10T07:48:53.811Z,80.8
2017-11-10T07:49:53.825Z,80.8
2017-11-10T07:50:53.843Z,80.99
2017-11-10T07:51:53.861Z,80.9
2017-11-10T07:52:53.533Z,80.8
2017-11-10T07:53:53.886Z,80.71
2017-11-10T07:54:53.902Z,80.8
2017-11-10T07:55:53.915Z,80.99
2017-11-10T07:56:53.925Z,81.09
2017-11-10T07:57:53.943Z,80.9
2017-11-10T07:58:53.966Z,81.09
2017-11-10T07:59:53.980Z,80.9
2017-11-10T08:00:54.965Z,80.9
2017-11-10T08:01:53.997Z,81.09
2017-11-10T08:02:54.010Z,80.99
2017-11-10T08:03:53.693Z,81.28
2017-11-10T08:04:54.040Z,80.99
2017-11-10T08:05:54.057Z,81.18
2017-11-10T08:06:54.071Z,81.28
2017-11-10T08:07:54.085Z,81.18
2017-11-10T08:08:53.771Z,81.37
2017-11-10T08:09:54.120Z,81.28
2017-11-10T08:10:53.791Z,81.09
2017-11-10T08:11:54.142Z,81.18
2017-11-10T08:12:54.154Z,81.28
2017-11-10T08:13:54.173Z,81.18
2017-11-10T08:14:53.851Z,81.28
2017-11-10T08:15:54.278Z,81.28
2017-11-10T08:16:54.215Z,81.18
2017-11-10T08:17:53.899Z,81.28
2017-11-10T08:18:54.243Z,80.99
2017-11-10T08:19:54.265Z,80.9
2017-11-10T08:20:54.280Z,81.09
2017-11-10T08:21:54.287Z,80.9
2017-11-10T08:22:54.324Z,80.8
2017-11-10T08:23:54.316Z,81.18
2017-11-10T08:24:54.345Z,80.9
2017-11-10T08:25:54.351Z,80.99
2017-11-10T08:26:54.359Z,80.8
2017-11-10T08:27:54.374Z,80.99
2017-11-10T08:28:54.050Z,80.8
2017-11-10T08:29:54.403Z,80.61
2017-11-10T08:30:54.421Z,80.33
2017-11-10T08:31:54.436Z,80.71
2017-11-10T08:32:54.448Z,80.61
2017-11-10T08:33:54.467Z,80.04
2017-11-10T08:34:54.493Z,80.23
2017-11-10T08:35:54.494Z,80.13
2017-11-10T08:36:54.507Z,79.94
2017-11-10T08:37:54.185Z,79.85
2017-11-10T08:38:54.199Z,79.75
2017-11-10T08:39:54.215Z,80.04
2017-11-10T08:40:54.231Z,79.94
2017-11-10T08:41:54.577Z,80.52
2017-11-10T08:42:54.600Z,80.61
2017-11-10T08:43:54.611Z,80.61
2017-11-10T08:44:54.285Z,80.71
2017-11-10T08:45:54.641Z,80.8
2017-11-10T08:46:54.653Z,80.61
2017-11-10T08:47:54.670Z,80.71
2017-11-10T08:48:54.699Z,80.61
2017-11-10T08:49:54.362Z,80.42
2017-11-10T08:50:54.722Z,80.61
2017-11-10T08:51:54.733Z,80.71
2017-11-10T08:52:54.742Z,80.52
2017-11-10T08:53:54.754Z,80.42
2017-11-10T08:54:54.770Z,80.42
2017-11-10T08:55:54.785Z,80.71
2017-11-10T08:56:54.799Z,80.61
2017-11-10T08:57:54.815Z,80.42
2017-11-10T08:58:54.839Z,80.61
2017-11-10T08:59:54.852Z,80.61
2017-11-10T09:00:54.522Z,80.42
2017-11-10T09:01:54.877Z,80.52
2017-11-10T09:02:54.887Z,80.61
2017-11-10T09:03:54.902Z,80.61
2017-11-10T09:04:54.918Z,80.61
2017-11-10T09:05:54.595Z,80.71
2017-11-10T09:06:54.953Z,80.9
2017-11-10T09:07:54.960Z,80.8
2017-11-10T09:08:54.985Z,80.42
2017-11-10T09:09:55.001Z,80.61
2017-11-10T09:10:54.668Z,80.61
2017-11-10T09:11:55.022Z,80.8
2017-11-10T09:12:55.031Z,80.42
2017-11-10T09:13:55.049Z,80.61
2017-11-10T09:14:54.725Z,80.42
2017-11-10T09:15:55.107Z,80.61
2017-11-10T09:16:55.096Z,80.42
2017-11-10T09:17:55.112Z,80.61
2017-11-10T09:18:55.122Z,80.61
2017-11-10T09:19:55.145Z,80.42
2017-11-10T09:20:54.815Z,81.09
2017-11-10T09:21:55.167Z,80.42
2017-11-10T09:22:55.188Z,80.42
2017-11-10T09:23:54.860Z,80.42
2017-11-10T09:24:55.216Z,80.71
2017-11-10T09:25:55.226Z,80.42
2017-11-10T09:26:55.240Z,80.42
2017-11-10T09:27:55.257Z,80.42
2017-11-10T09:28:55.280Z,80.61
2017-11-10T09:29:55.282Z,80.61
2017-11-10T09:30:55.300Z,80.33
2017-11-10T09:31:54.976Z,79.94
2017-11-10T09:32:55.324Z,80.04
2017-11-10T09:33:55.007Z,80.33
2017-11-10T09:34:55.355Z,80.04
2017-11-10T09:35:55.375Z,80.23
2017-11-10T09:36:55.386Z,79.75
2017-11-10T09:37:55.405Z,79.94
2017-11-10T09:38:55.082Z,79.94
2017-11-10T09:39:55.433Z,79.94
2017-11-10T09:40:55.113Z,79.94
2017-11-10T09:41:55.460Z,80.13
2017-11-10T09:42:55.477Z,79.94
2017-11-10T09:43:55.488Z,80.04
2017-11-10T09:44:55.539Z,80.08
2017-11-10T09:45:55.520Z,80.18
2017-11-10T09:46:55.532Z,80.18
2017-11-10T09:47:55.553Z,80.36
2017-11-10T09:48:55.570Z,80.27
2017-11-10T09:49:55.583Z,80.27
2017-11-10T09:50:55.600Z,80.36
2017-11-10T09:51:55.609Z,79.89
2017-11-10T09:52:55.623Z,80.18
2017-11-10T09:53:55.640Z,80.18
2017-11-10T09:54:55.662Z,80.18
2017-11-10T09:55:55.670Z,79.8
2017-11-10T09:56:55.682Z,80.27
2017-11-10T09:57:55.700Z,79.8
2017-11-10T09:58:55.712Z,80.18
2017-11-10T09:59:55.728Z,80.27
2017-11-10T10:00:55.739Z,79.89
2017-11-10T10:01:55.766Z,79.89
2017-11-10T10:02:55.437Z,80.46
2017-11-10T10:03:55.788Z,80.27
2017-11-10T10:04:55.806Z,80.18
2017-11-10T10:05:55.819Z,80.46
2017-11-10T10:06:55.831Z,80.18
2017-11-10T10:07:55.848Z,79.89
2017-11-10T10:08:55.861Z,80.08
2017-11-10T10:09:55.880Z,80.18
2017-11-10T10:10:55.890Z,79.99
2017-11-10T10:11:55.910Z,80.18
2017-11-10T10:12:55.919Z,80.27
2017-11-10T10:13:55.939Z,80.27
2017-11-10T10:14:55.953Z,80.27
2017-11-10T10:15:55.629Z,80.27
2017-11-10T10:16:55.979Z,80.18
2017-11-10T10:17:55.994Z,80.27
2017-11-10T10:18:55.682Z,80.08
2017-11-10T10:19:56.037Z,79.7
2017-11-10T10:20:56.039Z,80.08
2017-11-10T10:21:56.065Z,79.89
2017-11-10T10:22:56.073Z,80.27
2017-11-10T10:23:55.749Z,80.18
2017-11-10T10:24:55.766Z,80.27
2017-11-10T10:25:56.129Z,79.99
2017-11-10T10:26:56.148Z,79.7
2017-11-10T10:27:56.145Z,79.41
2017-11-10T10:28:56.166Z,79.7
2017-11-10T10:29:56.182Z,79.8
2017-11-10T10:30:56.188Z,79.7
2017-11-10T10:31:56.210Z,79.6
2017-11-10T10:32:56.217Z,79.51
2017-11-10T10:33:55.898Z,79.7
2017-11-10T10:34:56.249Z,79.6
2017-11-10T10:35:56.271Z,79.6
2017-11-10T10:36:56.301Z,79.22
2017-11-10T10:37:55.962Z,79.8
2017-11-10T10:38:56.310Z,79.41
2017-11-10T10:39:56.323Z,79.41
2017-11-10T10:40:56.336Z,79.99
2017-11-10T10:41:56.019Z,79.7
2017-11-10T10:42:56.032Z,79.13
2017-11-10T10:43:56.438Z,79.22
2017-11-10T10:44:56.400Z,79.13
2017-11-10T10:45:56.422Z,79.41
2017-11-10T10:46:56.431Z,78.94
2017-11-10T10:47:56.448Z,79.13
2017-11-10T10:48:56.461Z,79.13
2017-11-10T10:49:56.486Z,79.22
2017-11-10T10:50:56.488Z,79.03
2017-11-10T10:51:56.515Z,79.03
2017-11-10T10:52:56.518Z,79.22
2017-11-10T10:53:56.540Z,78.94
2017-11-10T10:54:56.549Z,78.75
2017-11-10T10:55:56.563Z,79.41
2017-11-10T10:56:56.580Z,78.94
2017-11-10T10:57:56.594Z,79.13
2017-11-10T10:58:56.614Z,78.94
2017-11-10T10:59:56.626Z,78.75
2017-11-10T11:00:56.637Z,79.03
2017-11-10T11:01:56.668Z,79.13
2017-11-10T11:02:56.670Z,79.13
2017-11-10T11:03:56.351Z,78.65
2017-11-10T11:04:56.698Z,78.65
2017-11-10T11:05:56.719Z,78.56
2017-11-10T11:06:56.730Z,78.56
2017-11-10T11:07:56.743Z,79.03
2017-11-10T11:08:56.762Z,78.75
2017-11-10T11:09:56.772Z,78.65
2017-11-10T11:10:56.819Z,78.94
2017-11-10T11:11:56.804Z,78.85
2017-11-10T11:12:56.818Z,78.75
2017-11-10T11:13:56.532Z,79.13
2017-11-10T11:14:56.852Z,78.56
2017-11-10T11:15:56.863Z,78.94
2017-11-10T11:16:56.881Z,78.37
2017-11-10T11:17:56.894Z,78.37
2017-11-10T11:18:56.915Z,78.56
2017-11-10T11:19:56.934Z,78.75
2017-11-10T11:20:56.944Z,78.56
2017-11-10T11:21:56.954Z,78.94
2017-11-10T11:22:56.633Z,78.75
2017-11-10T11:23:56.982Z,78.65
2017-11-10T11:24:57.038Z,78.56
2017-11-10T11:25:57.016Z,78.75
2017-11-10T11:26:57.028Z,78.85
2017-11-10T11:27:56.710Z,78.94
2017-11-10T11:28:57.064Z,78.75
2017-11-10T11:29:57.073Z,78.46
2017-11-10T11:30:57.092Z,79.03
2017-11-10T11:31:57.104Z,78.46
2017-11-10T11:32:57.121Z,78.75
2017-11-10T11:33:56.800Z,78.56
2017-11-10T11:34:57.153Z,78.75
2017-11-10T11:35:57.166Z,78.27
2017-11-10T11:36:56.844Z,78.75
2017-11-10T11:37:57.244Z,78.75
2017-11-10T11:38:57.209Z,78.75
2017-11-10T11:39:57.222Z,78.27
2017-11-10T11:40:57.243Z,78.65
2017-11-10T11:41:57.257Z,78.85
2017-11-10T11:42:57.272Z,78.46
2017-11-10T11:43:57.288Z,78.27
2017-11-10T11:44:57.300Z,78.46
2017-11-10T11:45:57.317Z,78.56
2017-11-10T11:46:57.366Z,78.65
2017-11-10T11:47:57.022Z,78.75
2017-11-10T11:48:57.364Z,78.46
2017-11-10T11:49:57.040Z,78.46
2017-11-10T11:50:57.391Z,78.65
2017-11-10T11:51:57.415Z,78.27
2017-11-10T11:52:57.424Z,78.22
2017-11-10T11:53:57.100Z,78.37
2017-11-10T11:54:57.456Z,78.41
2017-11-10T11:55:57.471Z,77.98
2017-11-10T11:56:57.486Z,78.17
2017-11-10T11:57:57.499Z,78.12
2017-11-10T11:58:57.516Z,78.22
2017-11-10T11:59:57.580Z,78.27
2017-11-10T12:00:57.542Z,77.51
2017-11-10T12:01:57.221Z,78.22
2017-11-10T12:02:57.576Z,78.22
2017-11-10T12:03:57.594Z,78.08
2017-11-10T12:04:57.607Z,78.03
2017-11-10T12:05:57.618Z,78.12
2017-11-10T12:06:57.649Z,78.22
2017-11-10T12:07:57.651Z,78.31
2017-11-10T12:08:57.663Z,78.22
2017-11-10T12:09:57.688Z,78.12
2017-11-10T12:10:57.701Z,78.03
2017-11-10T12:11:57.719Z,78.59
2017-11-10T12:12:57.737Z,77.83
2017-11-10T12:13:57.740Z,77.83
2017-11-10T12:14:57.761Z,78.22
2017-11-10T12:15:57.776Z,78.03
2017-11-10T12:16:57.451Z,77.26
2017-11-10T12:17:57.805Z,77.45
2017-11-10T12:18:57.822Z,77.55
2017-11-10T12:19:57.853Z,77.45
2017-11-10T12:20:57.851Z,77.45
2017-11-10T12:21:57.865Z,77.45
2017-11-10T12:22:57.887Z,77.26
2017-11-10T12:23:57.897Z,77.93
2017-11-10T12:24:57.910Z,77.07
2017-11-10T12:25:57.925Z,77.83
2017-11-10T12:26:57.940Z,77.83
2017-11-10T12:27:57.961Z,77.74
2017-11-10T12:28:57.972Z,77.36
2017-11-10T12:29:57.694Z,77.93
2017-11-10T12:30:58.003Z,76.98
2017-11-10T12:31:58.028Z,76.59
2017-11-10T12:32:58.032Z,77.17
2017-11-10T12:33:58.051Z,77.07
2017-11-10T12:34:58.066Z,77.26
2017-11-10T12:35:58.081Z,76.69
2017-11-10T12:36:58.093Z,76.88
2017-11-10T12:37:58.112Z,76.98
2017-11-10T12:38:58.125Z,76.4
2017-11-10T12:39:58.139Z,76.98
2017-11-10T12:40:58.158Z,76.98
2017-11-10T12:41:58.173Z,76.98
2017-11-10T12:42:58.185Z,76.88
2017-11-10T12:43:58.207Z,76.98
2017-11-10T12:44:57.880Z,77.07
2017-11-10T12:45:57.895Z,76.59
2017-11-10T12:46:58.249Z,75.93
2017-11-10T12:47:58.281Z,75.93
2017-11-10T12:48:58.281Z,76.12
2017-11-10T12:49:58.293Z,76.27
2017-11-10T12:50:58.312Z,75.99
2017-11-10T12:51:58.330Z,76.12
2017-11-10T12:52:58.339Z,76.12
2017-11-10T12:53:58.363Z,76.5
2017-11-10T12:54:58.370Z,75.89
2017-11-10T12:55:58.387Z,76.84
2017-11-10T12:56:58.405Z,75.99